sensor_id;sensor_type;location;lat;lon;timestamp;P1;durP1;ratioP1;P2;durP2;ratioP2
17915;SDS011;9083;49.156;8.982;2023-07-29T00:00:37;2.00;;;1.50;;
17915;SDS011;9083;49.156;8.982;2023-07-29T00:03:04;1.17;;;1.10;;
17915;SDS011;9083;49.156;8.982;2023-07-29T00:05:30;2.37;;;1.67;;
17915;SDS011;9083;49.156;8.982;2023-07-29T00:07:57;1.60;;;1.47;;
17915;SDS011;9083;49.156;8.982;2023-07-29T00:10:23;3.10;;;1.73;;
17915;SDS011;9083;49.156;8.982;2023-07-29T00:12:51;3.53;;;1.60;;
17915;SDS011;9083;49.156;8.982;2023-07-29T00:15:17;4.53;;;1.73;;
17915;SDS011;9083;49.156;8.982;2023-07-29T00:17:44;2.03;;;1.50;;
17915;SDS011;9083;49.156;8.982;2023-07-29T00:20:10;1.53;;;1.43;;
17915;SDS011;9083;49.156;8.982;2023-07-29T00:22:36;3.13;;;1.50;;
17915;SDS011;9083;49.156;8.982;2023-07-29T00:25:03;1.80;;;1.40;;
17915;SDS011;9083;49.156;8.982;2023-07-29T00:27:29;3.03;;;1.60;;
17915;SDS011;9083;49.156;8.982;2023-07-29T00:29:57;1.90;;;1.40;;
17915;SDS011;9083;49.156;8.982;2023-07-29T00:32:23;1.93;;;1.47;;
17915;SDS011;9083;49.156;8.982;2023-07-29T00:34:49;1.53;;;1.43;;
17915;SDS011;9083;49.156;8.982;2023-07-29T00:37:16;1.77;;;1.20;;
17915;SDS011;9083;49.156;8.982;2023-07-29T00:39:42;1.63;;;1.50;;
17915;SDS011;9083;49.156;8.982;2023-07-29T00:42:08;5.60;;;2.23;;
17915;SDS011;9083;49.156;8.982;2023-07-29T00:44:35;1.40;;;1.30;;
17915;SDS011;9083;49.156;8.982;2023-07-29T00:47:03;1.40;;;1.30;;
17915;SDS011;9083;49.156;8.982;2023-07-29T00:49:31;1.80;;;1.70;;
17915;SDS011;9083;49.156;8.982;2023-07-29T00:51:57;1.60;;;1.50;;
17915;SDS011;9083;49.156;8.982;2023-07-29T00:54:23;1.53;;;1.30;;
17915;SDS011;9083;49.156;8.982;2023-07-29T00:56:50;1.47;;;1.20;;
17915;SDS011;9083;49.156;8.982;2023-07-29T00:59:16;1.67;;;1.50;;
17915;SDS011;9083;49.156;8.982;2023-07-29T01:01:42;1.40;;;1.40;;
17915;SDS011;9083;49.156;8.982;2023-07-29T01:04:10;1.83;;;1.50;;
17915;SDS011;9083;49.156;8.982;2023-07-29T01:06:38;3.33;;;1.63;;
17915;SDS011;9083;49.156;8.982;2023-07-29T01:09:09;1.30;;;1.30;;
17915;SDS011;9083;49.156;8.982;2023-07-29T01:11:38;2.30;;;1.50;;
17915;SDS011;9083;49.156;8.982;2023-07-29T01:14:10;1.73;;;1.60;;
17915;SDS011;9083;49.156;8.982;2023-07-29T01:16:40;4.10;;;1.57;;
17915;SDS011;9083;49.156;8.982;2023-07-29T01:19:07;1.93;;;1.67;;
17915;SDS011;9083;49.156;8.982;2023-07-29T01:21:39;2.07;;;1.50;;
17915;SDS011;9083;49.156;8.982;2023-07-29T01:24:06;4.27;;;1.53;;
17915;SDS011;9083;49.156;8.982;2023-07-29T01:26:33;4.10;;;1.20;;
17915;SDS011;9083;49.156;8.982;2023-07-29T01:28:59;3.23;;;1.70;;
17915;SDS011;9083;49.156;8.982;2023-07-29T01:31:27;1.47;;;1.33;;
17915;SDS011;9083;49.156;8.982;2023-07-29T01:33:57;3.93;;;1.67;;
17915;SDS011;9083;49.156;8.982;2023-07-29T01:36:25;1.60;;;1.50;;
17915;SDS011;9083;49.156;8.982;2023-07-29T01:38:53;2.63;;;1.37;;
17915;SDS011;9083;49.156;8.982;2023-07-29T01:41:22;1.40;;;1.40;;
17915;SDS011;9083;49.156;8.982;2023-07-29T01:43:48;4.20;;;1.63;;
17915;SDS011;9083;49.156;8.982;2023-07-29T01:46:15;2.20;;;1.40;;
17915;SDS011;9083;49.156;8.982;2023-07-29T01:48:41;1.77;;;1.67;;
17915;SDS011;9083;49.156;8.982;2023-07-29T01:51:08;1.50;;;1.40;;
17915;SDS011;9083;49.156;8.982;2023-07-29T01:53:34;2.30;;;1.37;;
17915;SDS011;9083;49.156;8.982;2023-07-29T01:56:01;1.63;;;1.33;;
17915;SDS011;9083;49.156;8.982;2023-07-29T01:58:29;2.33;;;1.20;;
17915;SDS011;9083;49.156;8.982;2023-07-29T02:00:55;1.47;;;1.37;;
17915;SDS011;9083;49.156;8.982;2023-07-29T02:03:21;1.50;;;1.40;;
17915;SDS011;9083;49.156;8.982;2023-07-29T02:05:48;1.67;;;1.50;;
17915;SDS011;9083;49.156;8.982;2023-07-29T02:08:14;2.67;;;1.83;;
17915;SDS011;9083;49.156;8.982;2023-07-29T02:10:40;1.97;;;1.87;;
17915;SDS011;9083;49.156;8.982;2023-07-29T02:13:10;1.27;;;1.27;;
17915;SDS011;9083;49.156;8.982;2023-07-29T02:15:37;2.60;;;1.40;;
17915;SDS011;9083;49.156;8.982;2023-07-29T02:18:03;3.23;;;1.70;;
17915;SDS011;9083;49.156;8.982;2023-07-29T02:20:31;1.40;;;1.30;;
17915;SDS011;9083;49.156;8.982;2023-07-29T02:22:57;1.77;;;1.67;;
17915;SDS011;9083;49.156;8.982;2023-07-29T02:25:24;6.20;;;1.27;;
17915;SDS011;9083;49.156;8.982;2023-07-29T02:27:50;3.37;;;1.33;;
17915;SDS011;9083;49.156;8.982;2023-07-29T02:30:16;1.73;;;1.37;;
17915;SDS011;9083;49.156;8.982;2023-07-29T02:32:44;2.17;;;1.40;;
17915;SDS011;9083;49.156;8.982;2023-07-29T02:35:10;1.20;;;1.20;;
17915;SDS011;9083;49.156;8.982;2023-07-29T02:37:36;3.63;;;1.40;;
17915;SDS011;9083;49.156;8.982;2023-07-29T02:40:03;5.33;;;1.50;;
17915;SDS011;9083;49.156;8.982;2023-07-29T02:42:31;1.53;;;1.40;;
17915;SDS011;9083;49.156;8.982;2023-07-29T02:44:57;5.47;;;1.30;;
17915;SDS011;9083;49.156;8.982;2023-07-29T02:47:23;4.30;;;1.63;;
17915;SDS011;9083;49.156;8.982;2023-07-29T02:49:51;4.23;;;1.10;;
17915;SDS011;9083;49.156;8.982;2023-07-29T02:52:17;3.33;;;1.43;;
17915;SDS011;9083;49.156;8.982;2023-07-29T02:54:44;1.20;;;1.20;;
17915;SDS011;9083;49.156;8.982;2023-07-29T02:57:10;1.47;;;1.37;;
17915;SDS011;9083;49.156;8.982;2023-07-29T02:59:36;1.37;;;1.30;;
17915;SDS011;9083;49.156;8.982;2023-07-29T03:02:03;2.10;;;1.30;;
17915;SDS011;9083;49.156;8.982;2023-07-29T03:04:29;2.97;;;1.33;;
17915;SDS011;9083;49.156;8.982;2023-07-29T03:06:57;2.27;;;1.83;;
17915;SDS011;9083;49.156;8.982;2023-07-29T03:09:24;4.83;;;1.13;;
17915;SDS011;9083;49.156;8.982;2023-07-29T03:11:50;4.90;;;1.80;;
17915;SDS011;9083;49.156;8.982;2023-07-29T03:14:17;6.93;;;1.57;;
17915;SDS011;9083;49.156;8.982;2023-07-29T03:16:44;4.70;;;1.30;;
17915;SDS011;9083;49.156;8.982;2023-07-29T03:19:10;3.90;;;1.50;;
17915;SDS011;9083;49.156;8.982;2023-07-29T03:21:36;3.90;;;1.57;;
17915;SDS011;9083;49.156;8.982;2023-07-29T03:24:04;4.53;;;1.50;;
17915;SDS011;9083;49.156;8.982;2023-07-29T03:26:31;2.87;;;1.30;;
17915;SDS011;9083;49.156;8.982;2023-07-29T03:28:58;5.80;;;1.80;;
17915;SDS011;9083;49.156;8.982;2023-07-29T03:31:24;5.50;;;1.70;;
17915;SDS011;9083;49.156;8.982;2023-07-29T03:33:50;1.43;;;1.30;;
17915;SDS011;9083;49.156;8.982;2023-07-29T03:36:17;1.40;;;1.30;;
17915;SDS011;9083;49.156;8.982;2023-07-29T03:38:44;1.43;;;1.20;;
17915;SDS011;9083;49.156;8.982;2023-07-29T03:41:12;2.50;;;1.10;;
17915;SDS011;9083;49.156;8.982;2023-07-29T03:43:38;1.40;;;1.30;;
17915;SDS011;9083;49.156;8.982;2023-07-29T03:46:04;1.17;;;1.13;;
17915;SDS011;9083;49.156;8.982;2023-07-29T03:48:31;1.47;;;1.23;;
17915;SDS011;9083;49.156;8.982;2023-07-29T03:50:57;2.53;;;1.20;;
17915;SDS011;9083;49.156;8.982;2023-07-29T03:53:24;1.00;;;1.00;;
17915;SDS011;9083;49.156;8.982;2023-07-29T03:55:50;2.20;;;1.50;;
17915;SDS011;9083;49.156;8.982;2023-07-29T03:58:18;1.30;;;1.20;;
17915;SDS011;9083;49.156;8.982;2023-07-29T04:00:44;2.60;;;1.40;;
17915;SDS011;9083;49.156;8.982;2023-07-29T04:03:10;2.13;;;1.00;;
17915;SDS011;9083;49.156;8.982;2023-07-29T04:05:36;2.20;;;0.90;;
17915;SDS011;9083;49.156;8.982;2023-07-29T04:08:03;5.53;;;1.27;;
17915;SDS011;9083;49.156;8.982;2023-07-29T04:10:29;3.13;;;1.10;;
17915;SDS011;9083;49.156;8.982;2023-07-29T04:12:56;1.37;;;1.30;;
17915;SDS011;9083;49.156;8.982;2023-07-29T04:15:24;4.03;;;1.27;;
17915;SDS011;9083;49.156;8.982;2023-07-29T04:17:50;1.23;;;1.23;;
17915;SDS011;9083;49.156;8.982;2023-07-29T04:20:17;1.23;;;1.17;;
17915;SDS011;9083;49.156;8.982;2023-07-29T04:22:43;1.20;;;1.10;;
17915;SDS011;9083;49.156;8.982;2023-07-29T04:25:09;1.57;;;1.23;;
17915;SDS011;9083;49.156;8.982;2023-07-29T04:27:35;1.40;;;1.40;;
17915;SDS011;9083;49.156;8.982;2023-07-29T04:30:02;1.40;;;1.30;;
17915;SDS011;9083;49.156;8.982;2023-07-29T04:32:29;3.73;;;1.23;;
17915;SDS011;9083;49.156;8.982;2023-07-29T04:34:56;1.50;;;1.40;;
17915;SDS011;9083;49.156;8.982;2023-07-29T04:37:22;1.80;;;1.70;;
17915;SDS011;9083;49.156;8.982;2023-07-29T04:39:48;1.63;;;1.30;;
17915;SDS011;9083;49.156;8.982;2023-07-29T04:42:15;1.33;;;1.17;;
17915;SDS011;9083;49.156;8.982;2023-07-29T04:44:41;3.03;;;1.43;;
17915;SDS011;9083;49.156;8.982;2023-07-29T04:47:08;2.43;;;1.40;;
17915;SDS011;9083;49.156;8.982;2023-07-29T04:49:36;5.63;;;1.70;;
17915;SDS011;9083;49.156;8.982;2023-07-29T04:52:02;4.80;;;1.57;;
17915;SDS011;9083;49.156;8.982;2023-07-29T04:54:28;7.83;;;1.40;;
17915;SDS011;9083;49.156;8.982;2023-07-29T04:56:55;3.63;;;1.63;;
17915;SDS011;9083;49.156;8.982;2023-07-29T04:59:21;7.93;;;2.20;;
17915;SDS011;9083;49.156;8.982;2023-07-29T05:01:47;10.07;;;2.10;;
17915;SDS011;9083;49.156;8.982;2023-07-29T05:04:13;10.47;;;2.47;;
17915;SDS011;9083;49.156;8.982;2023-07-29T05:06:41;7.20;;;2.07;;
17915;SDS011;9083;49.156;8.982;2023-07-29T05:09:14;5.17;;;1.93;;
17915;SDS011;9083;49.156;8.982;2023-07-29T05:11:40;8.77;;;2.33;;
17915;SDS011;9083;49.156;8.982;2023-07-29T05:14:07;4.93;;;1.87;;
17915;SDS011;9083;49.156;8.982;2023-07-29T05:16:34;1.80;;;1.60;;
17915;SDS011;9083;49.156;8.982;2023-07-29T05:19:00;4.83;;;1.50;;
17915;SDS011;9083;49.156;8.982;2023-07-29T05:21:27;2.50;;;1.60;;
17915;SDS011;9083;49.156;8.982;2023-07-29T05:23:54;3.73;;;1.80;;
17915;SDS011;9083;49.156;8.982;2023-07-29T05:26:21;1.87;;;1.67;;
17915;SDS011;9083;49.156;8.982;2023-07-29T05:28:48;1.37;;;1.30;;
17915;SDS011;9083;49.156;8.982;2023-07-29T05:31:14;6.40;;;1.97;;
17915;SDS011;9083;49.156;8.982;2023-07-29T05:33:40;1.70;;;1.40;;
17915;SDS011;9083;49.156;8.982;2023-07-29T05:36:07;4.87;;;1.90;;
17915;SDS011;9083;49.156;8.982;2023-07-29T05:38:33;4.20;;;1.60;;
17915;SDS011;9083;49.156;8.982;2023-07-29T05:41:00;2.03;;;1.60;;
17915;SDS011;9083;49.156;8.982;2023-07-29T05:43:27;2.33;;;1.33;;
17915;SDS011;9083;49.156;8.982;2023-07-29T05:45:53;2.27;;;1.60;;
17915;SDS011;9083;49.156;8.982;2023-07-29T05:48:19;3.27;;;1.60;;
17915;SDS011;9083;49.156;8.982;2023-07-29T05:50:46;1.40;;;1.30;;
17915;SDS011;9083;49.156;8.982;2023-07-29T05:53:13;3.30;;;1.40;;
17915;SDS011;9083;49.156;8.982;2023-07-29T05:55:40;5.77;;;1.67;;
17915;SDS011;9083;49.156;8.982;2023-07-29T05:58:07;2.73;;;1.80;;
17915;SDS011;9083;49.156;8.982;2023-07-29T06:00:34;1.80;;;1.60;;
17915;SDS011;9083;49.156;8.982;2023-07-29T06:03:00;2.83;;;1.90;;
17915;SDS011;9083;49.156;8.982;2023-07-29T06:05:27;2.00;;;1.60;;
17915;SDS011;9083;49.156;8.982;2023-07-29T06:07:53;1.50;;;1.40;;
17915;SDS011;9083;49.156;8.982;2023-07-29T06:10:19;2.90;;;1.30;;
17915;SDS011;9083;49.156;8.982;2023-07-29T06:12:47;1.80;;;1.50;;
17915;SDS011;9083;49.156;8.982;2023-07-29T06:15:14;1.60;;;1.50;;
17915;SDS011;9083;49.156;8.982;2023-07-29T06:17:41;1.50;;;1.40;;
17915;SDS011;9083;49.156;8.982;2023-07-29T06:20:07;2.43;;;1.17;;
17915;SDS011;9083;49.156;8.982;2023-07-29T06:22:34;5.67;;;1.57;;
17915;SDS011;9083;49.156;8.982;2023-07-29T06:25:00;1.60;;;1.50;;
17915;SDS011;9083;49.156;8.982;2023-07-29T06:27:26;1.70;;;1.50;;
17915;SDS011;9083;49.156;8.982;2023-07-29T06:29:53;3.40;;;1.30;;
17915;SDS011;9083;49.156;8.982;2023-07-29T06:32:20;1.20;;;1.20;;
17915;SDS011;9083;49.156;8.982;2023-07-29T06:34:47;1.40;;;1.30;;
17915;SDS011;9083;49.156;8.982;2023-07-29T06:37:13;3.80;;;1.30;;
17915;SDS011;9083;49.156;8.982;2023-07-29T06:39:39;1.90;;;1.60;;
17915;SDS011;9083;49.156;8.982;2023-07-29T06:42:06;1.63;;;1.53;;
17915;SDS011;9083;49.156;8.982;2023-07-29T06:44:32;1.10;;;1.10;;
17915;SDS011;9083;49.156;8.982;2023-07-29T06:46:58;2.50;;;1.20;;
17915;SDS011;9083;49.156;8.982;2023-07-29T06:49:26;1.90;;;1.40;;
17915;SDS011;9083;49.156;8.982;2023-07-29T06:51:52;1.70;;;1.27;;
17915;SDS011;9083;49.156;8.982;2023-07-29T06:54:19;1.13;;;1.13;;
17915;SDS011;9083;49.156;8.982;2023-07-29T06:56:49;2.70;;;1.10;;
17915;SDS011;9083;49.156;8.982;2023-07-29T06:59:16;2.67;;;1.33;;
17915;SDS011;9083;49.156;8.982;2023-07-29T07:01:42;1.37;;;1.17;;
17915;SDS011;9083;49.156;8.982;2023-07-29T07:04:08;1.77;;;1.27;;
17915;SDS011;9083;49.156;8.982;2023-07-29T07:06:36;2.43;;;1.37;;
17915;SDS011;9083;49.156;8.982;2023-07-29T07:09:02;1.60;;;1.50;;
17915;SDS011;9083;49.156;8.982;2023-07-29T07:11:28;3.87;;;2.00;;
17915;SDS011;9083;49.156;8.982;2023-07-29T07:13:55;1.60;;;1.50;;
17915;SDS011;9083;49.156;8.982;2023-07-29T07:16:21;1.67;;;1.20;;
17915;SDS011;9083;49.156;8.982;2023-07-29T07:18:47;3.73;;;1.63;;
17915;SDS011;9083;49.156;8.982;2023-07-29T07:21:14;2.73;;;1.43;;
17915;SDS011;9083;49.156;8.982;2023-07-29T07:23:41;2.27;;;1.40;;
17915;SDS011;9083;49.156;8.982;2023-07-29T07:26:08;3.13;;;1.40;;
17915;SDS011;9083;49.156;8.982;2023-07-29T07:28:34;3.73;;;1.80;;
17915;SDS011;9083;49.156;8.982;2023-07-29T07:31:00;2.67;;;1.43;;
17915;SDS011;9083;49.156;8.982;2023-07-29T07:33:26;2.03;;;1.80;;
17915;SDS011;9083;49.156;8.982;2023-07-29T07:35:53;1.70;;;1.60;;
17915;SDS011;9083;49.156;8.982;2023-07-29T07:38:19;4.43;;;1.60;;
17915;SDS011;9083;49.156;8.982;2023-07-29T07:40:53;1.53;;;1.50;;
17915;SDS011;9083;49.156;8.982;2023-07-29T07:43:20;2.30;;;1.30;;
17915;SDS011;9083;49.156;8.982;2023-07-29T07:45:46;1.17;;;1.17;;
17915;SDS011;9083;49.156;8.982;2023-07-29T07:48:12;1.43;;;1.43;;
17915;SDS011;9083;49.156;8.982;2023-07-29T07:50:39;2.63;;;1.77;;
17915;SDS011;9083;49.156;8.982;2023-07-29T07:53:05;1.17;;;1.10;;
17915;SDS011;9083;49.156;8.982;2023-07-29T07:55:31;3.50;;;1.20;;
17915;SDS011;9083;49.156;8.982;2023-07-29T07:57:59;1.90;;;1.17;;
17915;SDS011;9083;49.156;8.982;2023-07-29T08:00:25;1.47;;;1.37;;
17915;SDS011;9083;49.156;8.982;2023-07-29T08:02:52;5.37;;;2.63;;
17915;SDS011;9083;49.156;8.982;2023-07-29T08:05:18;1.53;;;1.43;;
17915;SDS011;9083;49.156;8.982;2023-07-29T08:07:44;2.00;;;1.33;;
17915;SDS011;9083;49.156;8.982;2023-07-29T08:10:10;1.33;;;1.33;;
17915;SDS011;9083;49.156;8.982;2023-07-29T08:12:37;1.30;;;1.20;;
17915;SDS011;9083;49.156;8.982;2023-07-29T08:15:05;1.27;;;1.27;;
17915;SDS011;9083;49.156;8.982;2023-07-29T08:17:31;1.50;;;1.40;;
17915;SDS011;9083;49.156;8.982;2023-07-29T08:19:58;2.57;;;1.43;;
17915;SDS011;9083;49.156;8.982;2023-07-29T08:22:24;3.53;;;1.53;;
17915;SDS011;9083;49.156;8.982;2023-07-29T08:24:50;2.70;;;1.80;;
17915;SDS011;9083;49.156;8.982;2023-07-29T08:27:17;1.50;;;1.40;;
17915;SDS011;9083;49.156;8.982;2023-07-29T08:29:43;1.87;;;1.73;;
17915;SDS011;9083;49.156;8.982;2023-07-29T08:32:11;1.47;;;1.20;;
17915;SDS011;9083;49.156;8.982;2023-07-29T08:34:37;1.47;;;1.43;;
17915;SDS011;9083;49.156;8.982;2023-07-29T08:37:04;4.90;;;1.97;;
17915;SDS011;9083;49.156;8.982;2023-07-29T08:39:30;1.70;;;1.60;;
17915;SDS011;9083;49.156;8.982;2023-07-29T08:41:57;2.33;;;2.10;;
17915;SDS011;9083;49.156;8.982;2023-07-29T08:44:25;3.33;;;1.57;;
17915;SDS011;9083;49.156;8.982;2023-07-29T08:46:52;1.13;;;1.13;;
17915;SDS011;9083;49.156;8.982;2023-07-29T08:49:21;1.50;;;1.40;;
17915;SDS011;9083;49.156;8.982;2023-07-29T08:51:49;1.40;;;1.40;;
17915;SDS011;9083;49.156;8.982;2023-07-29T08:54:16;1.50;;;1.40;;
17915;SDS011;9083;49.156;8.982;2023-07-29T08:56:42;1.40;;;1.30;;
17915;SDS011;9083;49.156;8.982;2023-07-29T08:59:09;2.53;;;1.50;;
17915;SDS011;9083;49.156;8.982;2023-07-29T09:01:36;4.93;;;4.43;;
17915;SDS011;9083;49.156;8.982;2023-07-29T09:04:03;15.03;;;9.87;;
17915;SDS011;9083;49.156;8.982;2023-07-29T09:06:32;18.23;;;12.23;;
17915;SDS011;9083;49.156;8.982;2023-07-29T09:08:58;9.90;;;7.37;;
17915;SDS011;9083;49.156;8.982;2023-07-29T09:11:24;2.47;;;2.27;;
17915;SDS011;9083;49.156;8.982;2023-07-29T09:13:51;1.87;;;1.57;;
17915;SDS011;9083;49.156;8.982;2023-07-29T09:16:18;1.70;;;1.60;;
17915;SDS011;9083;49.156;8.982;2023-07-29T09:18:43;2.07;;;1.87;;
17915;SDS011;9083;49.156;8.982;2023-07-29T09:21:09;1.90;;;1.40;;
17915;SDS011;9083;49.156;8.982;2023-07-29T09:23:41;1.70;;;1.30;;
17915;SDS011;9083;49.156;8.982;2023-07-29T09:26:07;2.67;;;1.77;;
17915;SDS011;9083;49.156;8.982;2023-07-29T09:28:34;3.27;;;1.40;;
17915;SDS011;9083;49.156;8.982;2023-07-29T09:31:00;2.60;;;1.83;;
17915;SDS011;9083;49.156;8.982;2023-07-29T09:33:27;1.73;;;1.63;;
17915;SDS011;9083;49.156;8.982;2023-07-29T09:35:53;5.87;;;1.47;;
17915;SDS011;9083;49.156;8.982;2023-07-29T09:38:25;2.53;;;1.33;;
17915;SDS011;9083;49.156;8.982;2023-07-29T09:40:54;1.43;;;1.33;;
17915;SDS011;9083;49.156;8.982;2023-07-29T09:43:20;1.60;;;1.50;;
17915;SDS011;9083;49.156;8.982;2023-07-29T09:45:51;1.13;;;1.10;;
17915;SDS011;9083;49.156;8.982;2023-07-29T09:48:19;1.43;;;1.30;;
17915;SDS011;9083;49.156;8.982;2023-07-29T09:50:46;1.40;;;1.40;;
17915;SDS011;9083;49.156;8.982;2023-07-29T09:53:13;1.33;;;1.23;;
17915;SDS011;9083;49.156;8.982;2023-07-29T09:55:40;1.57;;;1.47;;
17915;SDS011;9083;49.156;8.982;2023-07-29T09:58:13;1.30;;;1.30;;
17915;SDS011;9083;49.156;8.982;2023-07-29T10:00:39;1.50;;;1.40;;
17915;SDS011;9083;49.156;8.982;2023-07-29T10:03:06;1.30;;;1.30;;
17915;SDS011;9083;49.156;8.982;2023-07-29T10:05:32;3.20;;;1.10;;
17915;SDS011;9083;49.156;8.982;2023-07-29T10:07:59;1.37;;;1.30;;
17915;SDS011;9083;49.156;8.982;2023-07-29T10:10:27;0.80;;;0.80;;
17915;SDS011;9083;49.156;8.982;2023-07-29T10:12:54;1.07;;;0.80;;
17915;SDS011;9083;49.156;8.982;2023-07-29T10:15:22;1.13;;;0.83;;
17915;SDS011;9083;49.156;8.982;2023-07-29T10:17:48;1.00;;;1.00;;
17915;SDS011;9083;49.156;8.982;2023-07-29T10:20:16;2.93;;;1.23;;
17915;SDS011;9083;49.156;8.982;2023-07-29T10:22:42;0.80;;;0.80;;
17915;SDS011;9083;49.156;8.982;2023-07-29T10:25:10;1.23;;;1.17;;
17915;SDS011;9083;49.156;8.982;2023-07-29T10:27:42;1.00;;;1.00;;
17915;SDS011;9083;49.156;8.982;2023-07-29T10:30:09;2.10;;;1.23;;
17915;SDS011;9083;49.156;8.982;2023-07-29T10:32:37;1.07;;;1.00;;
17915;SDS011;9083;49.156;8.982;2023-07-29T10:35:04;1.57;;;1.47;;
17915;SDS011;9083;49.156;8.982;2023-07-29T10:37:31;0.93;;;0.93;;
17915;SDS011;9083;49.156;8.982;2023-07-29T10:39:58;1.20;;;1.20;;
17915;SDS011;9083;49.156;8.982;2023-07-29T10:42:24;1.77;;;1.57;;
17915;SDS011;9083;49.156;8.982;2023-07-29T10:44:51;1.33;;;1.20;;
17915;SDS011;9083;49.156;8.982;2023-07-29T10:47:23;1.20;;;1.17;;
17915;SDS011;9083;49.156;8.982;2023-07-29T10:49:52;4.17;;;1.30;;
17915;SDS011;9083;49.156;8.982;2023-07-29T10:52:29;1.63;;;1.53;;
17915;SDS011;9083;49.156;8.982;2023-07-29T10:54:55;3.07;;;1.40;;
17915;SDS011;9083;49.156;8.982;2023-07-29T10:57:30;1.23;;;1.23;;
17915;SDS011;9083;49.156;8.982;2023-07-29T10:59:56;1.33;;;1.10;;
17915;SDS011;9083;49.156;8.982;2023-07-29T11:02:27;1.20;;;1.10;;
17915;SDS011;9083;49.156;8.982;2023-07-29T11:04:56;1.70;;;1.40;;
17915;SDS011;9083;49.156;8.982;2023-07-29T11:07:22;1.40;;;1.23;;
17915;SDS011;9083;49.156;8.982;2023-07-29T11:09:52;2.73;;;1.20;;
17915;SDS011;9083;49.156;8.982;2023-07-29T11:12:34;1.00;;;1.00;;
17915;SDS011;9083;49.156;8.982;2023-07-29T11:15:02;2.53;;;1.00;;
17915;SDS011;9083;49.156;8.982;2023-07-29T11:17:29;1.60;;;1.27;;
17915;SDS011;9083;49.156;8.982;2023-07-29T11:19:57;1.08;;;1.08;;
17915;SDS011;9083;49.156;8.982;2023-07-29T11:22:25;1.90;;;1.00;;
17915;SDS011;9083;49.156;8.982;2023-07-29T11:24:52;2.60;;;1.40;;
17915;SDS011;9083;49.156;8.982;2023-07-29T11:27:18;0.90;;;0.90;;
17915;SDS011;9083;49.156;8.982;2023-07-29T11:29:44;0.70;;;0.70;;
17915;SDS011;9083;49.156;8.982;2023-07-29T11:32:11;1.05;;;0.85;;
17915;SDS011;9083;49.156;8.982;2023-07-29T11:34:37;0.90;;;0.90;;
17915;SDS011;9083;49.156;8.982;2023-07-29T11:37:06;1.63;;;1.20;;
17915;SDS011;9083;49.156;8.982;2023-07-29T11:39:32;1.30;;;1.20;;
17915;SDS011;9083;49.156;8.982;2023-07-29T11:41:59;1.50;;;1.40;;
17915;SDS011;9083;49.156;8.982;2023-07-29T11:44:25;1.20;;;1.10;;
17915;SDS011;9083;49.156;8.982;2023-07-29T11:46:52;1.35;;;1.23;;
17915;SDS011;9083;49.156;8.982;2023-07-29T11:49:19;1.08;;;1.05;;
17915;SDS011;9083;49.156;8.982;2023-07-29T11:51:46;1.83;;;1.00;;
17915;SDS011;9083;49.156;8.982;2023-07-29T11:54:13;0.88;;;0.88;;
17915;SDS011;9083;49.156;8.982;2023-07-29T11:56:40;1.23;;;1.10;;
17915;SDS011;9083;49.156;8.982;2023-07-29T11:59:06;1.13;;;1.13;;
17915;SDS011;9083;49.156;8.982;2023-07-29T12:01:33;1.30;;;1.20;;
17915;SDS011;9083;49.156;8.982;2023-07-29T12:03:59;1.00;;;1.00;;
17915;SDS011;9083;49.156;8.982;2023-07-29T12:06:25;1.10;;;1.10;;
17915;SDS011;9083;49.156;8.982;2023-07-29T12:08:52;6.28;;;1.40;;
17915;SDS011;9083;49.156;8.982;2023-07-29T12:11:20;1.27;;;1.17;;
17915;SDS011;9083;49.156;8.982;2023-07-29T12:13:46;1.50;;;1.40;;
17915;SDS011;9083;49.156;8.982;2023-07-29T12:16:16;1.23;;;1.20;;
17915;SDS011;9083;49.156;8.982;2023-07-29T12:18:42;1.45;;;1.00;;
17915;SDS011;9083;49.156;8.982;2023-07-29T12:21:09;3.63;;;1.60;;
17915;SDS011;9083;49.156;8.982;2023-07-29T12:23:35;1.92;;;1.80;;
17915;SDS011;9083;49.156;8.982;2023-07-29T12:26:02;1.42;;;1.33;;
17915;SDS011;9083;49.156;8.982;2023-07-29T12:28:29;1.40;;;1.40;;
17915;SDS011;9083;49.156;8.982;2023-07-29T12:30:56;1.33;;;1.30;;
17915;SDS011;9083;49.156;8.982;2023-07-29T12:33:29;1.95;;;1.30;;
17915;SDS011;9083;49.156;8.982;2023-07-29T12:35:56;1.63;;;1.38;;
17915;SDS011;9083;49.156;8.982;2023-07-29T12:38:22;4.03;;;1.10;;
17915;SDS011;9083;49.156;8.982;2023-07-29T12:40:48;1.50;;;1.33;;
17915;SDS011;9083;49.156;8.982;2023-07-29T12:43:14;1.40;;;1.30;;
17915;SDS011;9083;49.156;8.982;2023-07-29T12:45:42;1.13;;;1.13;;
17915;SDS011;9083;49.156;8.982;2023-07-29T12:48:09;1.90;;;1.40;;
17915;SDS011;9083;49.156;8.982;2023-07-29T12:50:35;1.10;;;1.10;;
17915;SDS011;9083;49.156;8.982;2023-07-29T12:53:01;1.33;;;1.30;;
17915;SDS011;9083;49.156;8.982;2023-07-29T12:55:28;2.45;;;1.45;;
17915;SDS011;9083;49.156;8.982;2023-07-29T12:57:54;1.15;;;1.15;;
17915;SDS011;9083;49.156;8.982;2023-07-29T13:00:20;1.20;;;1.20;;
17915;SDS011;9083;49.156;8.982;2023-07-29T13:02:48;1.50;;;1.40;;
17915;SDS011;9083;49.156;8.982;2023-07-29T13:05:14;2.00;;;1.25;;
17915;SDS011;9083;49.156;8.982;2023-07-29T13:07:41;1.38;;;1.30;;
17915;SDS011;9083;49.156;8.982;2023-07-29T13:10:08;1.08;;;1.08;;
17915;SDS011;9083;49.156;8.982;2023-07-29T13:12:34;1.10;;;1.10;;
17915;SDS011;9083;49.156;8.982;2023-07-29T13:15:00;3.53;;;1.13;;
17915;SDS011;9083;49.156;8.982;2023-07-29T13:17:27;2.03;;;1.27;;
17915;SDS011;9083;49.156;8.982;2023-07-29T13:19:54;1.52;;;1.42;;
17915;SDS011;9083;49.156;8.982;2023-07-29T13:22:20;1.20;;;1.20;;
17915;SDS011;9083;49.156;8.982;2023-07-29T13:24:47;1.15;;;1.05;;
17915;SDS011;9083;49.156;8.982;2023-07-29T13:27:13;1.52;;;1.42;;
17915;SDS011;9083;49.156;8.982;2023-07-29T13:29:39;2.95;;;1.30;;
17915;SDS011;9083;49.156;8.982;2023-07-29T13:32:07;1.25;;;1.25;;
17915;SDS011;9083;49.156;8.982;2023-07-29T13:34:33;1.60;;;1.50;;
17915;SDS011;9083;49.156;8.982;2023-07-29T13:37:01;1.30;;;1.30;;
17915;SDS011;9083;49.156;8.982;2023-07-29T13:39:27;1.90;;;1.23;;
17915;SDS011;9083;49.156;8.982;2023-07-29T13:41:54;2.10;;;1.45;;
17915;SDS011;9083;49.156;8.982;2023-07-29T13:44:20;1.60;;;1.50;;
17915;SDS011;9083;49.156;8.982;2023-07-29T13:46:46;1.35;;;1.25;;
17915;SDS011;9083;49.156;8.982;2023-07-29T13:49:13;1.60;;;1.50;;
17915;SDS011;9083;49.156;8.982;2023-07-29T13:51:39;1.48;;;1.38;;
17915;SDS011;9083;49.156;8.982;2023-07-29T13:54:09;1.73;;;1.05;;
17915;SDS011;9083;49.156;8.982;2023-07-29T13:56:35;1.20;;;1.20;;
17915;SDS011;9083;49.156;8.982;2023-07-29T13:59:01;1.25;;;1.25;;
17915;SDS011;9083;49.156;8.982;2023-07-29T14:01:27;1.50;;;1.40;;
17915;SDS011;9083;49.156;8.982;2023-07-29T14:03:54;1.38;;;1.33;;
17915;SDS011;9083;49.156;8.982;2023-07-29T14:06:20;1.08;;;1.08;;
17915;SDS011;9083;49.156;8.982;2023-07-29T14:08:46;2.53;;;1.27;;
17915;SDS011;9083;49.156;8.982;2023-07-29T14:11:14;1.70;;;1.60;;
17915;SDS011;9083;49.156;8.982;2023-07-29T14:13:40;1.60;;;1.38;;
17915;SDS011;9083;49.156;8.982;2023-07-29T14:16:07;2.58;;;1.50;;
17915;SDS011;9083;49.156;8.982;2023-07-29T14:18:33;3.38;;;1.50;;
17915;SDS011;9083;49.156;8.982;2023-07-29T14:20:59;2.10;;;1.75;;
17915;SDS011;9083;49.156;8.982;2023-07-29T14:23:25;2.85;;;1.42;;
17915;SDS011;9083;49.156;8.982;2023-07-29T14:25:52;1.10;;;1.10;;
17915;SDS011;9083;49.156;8.982;2023-07-29T14:28:19;2.85;;;1.10;;
17915;SDS011;9083;49.156;8.982;2023-07-29T14:30:46;8.15;;;1.80;;
17915;SDS011;9083;49.156;8.982;2023-07-29T14:33:12;1.15;;;1.10;;
17915;SDS011;9083;49.156;8.982;2023-07-29T14:35:39;1.10;;;1.10;;
17915;SDS011;9083;49.156;8.982;2023-07-29T14:38:06;1.85;;;1.70;;
17915;SDS011;9083;49.156;8.982;2023-07-29T14:40:32;2.30;;;1.33;;
17915;SDS011;9083;49.156;8.982;2023-07-29T14:42:58;1.13;;;1.13;;
17915;SDS011;9083;49.156;8.982;2023-07-29T14:45:26;1.45;;;1.35;;
17915;SDS011;9083;49.156;8.982;2023-07-29T14:47:52;2.28;;;1.48;;
17915;SDS011;9083;49.156;8.982;2023-07-29T14:50:19;2.38;;;1.13;;
17915;SDS011;9083;49.156;8.982;2023-07-29T14:52:45;1.92;;;1.40;;
17915;SDS011;9083;49.156;8.982;2023-07-29T14:55:11;1.98;;;1.58;;
17915;SDS011;9083;49.156;8.982;2023-07-29T14:57:37;1.50;;;1.40;;